createdAt,value
2022-10-22T00:00:15.321Z,9.35
2022-10-22T00:02:43.017Z,8.85
2022-10-22T00:05:10.522Z,8.52
2022-10-22T00:07:37.934Z,7.80
2022-10-22T00:10:07.085Z,9.20
2022-10-22T00:12:34.222Z,9.15
2022-10-22T00:15:01.096Z,8.52
2022-10-22T00:17:28.248Z,8.98
2022-10-22T00:19:55.121Z,10.68
2022-10-22T00:22:22.164Z,9.40
2022-10-22T00:24:49.083Z,9.75
2022-10-22T00:27:16.219Z,9.73
2022-10-22T00:29:43.293Z,8.55
2022-10-22T00:32:10.258Z,9.57
2022-10-22T00:34:37.313Z,8.13
2022-10-22T00:37:04.382Z,8.43
2022-10-22T00:39:31.544Z,8.98
2022-10-22T00:41:59.715Z,8.90
2022-10-22T00:45:10.265Z,9.63
2022-10-22T00:47:56.112Z,8.27
2022-10-22T00:50:44.270Z,9.15
2022-10-22T00:53:15.757Z,7.75
2022-10-22T00:58:10.854Z,8.68
2022-10-22T01:00:38.099Z,10.27
2022-10-22T01:03:05.502Z,8.73
2022-10-22T01:05:45.013Z,9.02
2022-10-22T01:08:47.300Z,9.77
2022-10-22T01:11:33.210Z,9.68
2022-10-22T01:14:03.114Z,10.02
2022-10-22T01:17:03.995Z,9.75
2022-10-22T01:19:51.139Z,8.75
2022-10-22T01:22:25.664Z,9.85
2022-10-22T01:25:44.425Z,10.02
2022-10-22T01:29:00.181Z,7.95
2022-10-22T01:31:33.375Z,9.15
2022-10-22T01:34:00.994Z,9.00
2022-10-22T01:36:30.513Z,8.63
2022-10-22T01:38:59.435Z,8.75
2022-10-22T01:41:28.792Z,9.52
2022-10-22T01:43:56.024Z,8.70
2022-10-22T01:46:27.212Z,8.15
2022-10-22T01:49:06.297Z,8.48
2022-10-22T01:52:16.444Z,9.18
2022-10-22T01:54:54.417Z,8.98
2022-10-22T01:57:44.538Z,9.60
2022-10-22T02:00:14.295Z,8.88
2022-10-22T02:03:03.590Z,8.43
2022-10-22T02:05:46.250Z,8.80
2022-10-22T02:08:18.159Z,8.75
2022-10-22T02:10:47.318Z,9.05
2022-10-22T02:13:22.298Z,9.48
2022-10-22T02:15:50.814Z,9.68
2022-10-22T02:18:21.336Z,9.32
2022-10-22T02:20:49.080Z,9.88
2022-10-22T02:23:16.196Z,8.60
2022-10-22T02:25:47.247Z,9.50
2022-10-22T02:28:51.597Z,8.65
2022-10-22T02:31:29.243Z,9.18
2022-10-22T02:34:04.889Z,9.93
2022-10-22T02:36:32.337Z,9.20
2022-10-22T02:38:59.642Z,9.98
2022-10-22T02:41:27.184Z,8.95
2022-10-22T02:43:55.595Z,10.23
2022-10-22T02:46:23.467Z,8.68
2022-10-22T02:48:50.282Z,9.77
2022-10-22T02:51:17.088Z,9.80
2022-10-22T02:53:43.978Z,9.43
2022-10-22T02:56:10.842Z,10.63
2022-10-22T02:58:37.674Z,9.45
2022-10-22T03:01:04.724Z,11.10
2022-10-22T03:03:31.732Z,9.48
2022-10-22T03:05:58.501Z,9.90
2022-10-22T03:08:25.348Z,10.40
2022-10-22T03:10:52.255Z,11.18
2022-10-22T03:13:19.008Z,10.95
2022-10-22T03:15:48.840Z,9.85
2022-10-22T03:18:15.796Z,10.75
2022-10-22T03:20:42.660Z,10.35
2022-10-22T03:23:11.531Z,9.48
2022-10-22T03:25:40.965Z,10.10
2022-10-22T03:28:09.311Z,9.25
2022-10-22T03:30:36.463Z,9.13
2022-10-22T03:33:03.400Z,10.27
2022-10-22T03:35:31.501Z,9.40
2022-10-22T03:38:01.225Z,9.38
2022-10-22T03:40:28.032Z,9.98
2022-10-22T03:42:54.839Z,9.82
2022-10-22T03:45:21.689Z,9.68
2022-10-22T03:47:48.480Z,8.73
2022-10-22T03:50:15.539Z,9.90
2022-10-22T03:52:42.349Z,9.57
2022-10-22T03:55:09.637Z,10.50
2022-10-22T03:57:36.947Z,11.13
2022-10-22T04:00:06.198Z,9.85
2022-10-22T04:02:33.137Z,9.45
2022-10-22T04:05:00.126Z,9.73
2022-10-22T04:07:27.161Z,9.53
2022-10-22T04:09:53.906Z,8.90
2022-10-22T04:12:20.728Z,9.05
2022-10-22T04:14:48.129Z,9.02
2022-10-22T04:17:15.607Z,8.95
2022-10-22T04:19:42.404Z,9.30
2022-10-22T04:22:09.174Z,10.88
2022-10-22T04:24:36.064Z,9.75
2022-10-22T04:27:02.851Z,10.27
2022-10-22T04:29:29.687Z,8.63
2022-10-22T04:31:56.449Z,9.15
2022-10-22T04:34:23.238Z,8.93
2022-10-22T04:36:50.213Z,9.18
2022-10-22T04:39:17.036Z,10.15
2022-10-22T04:41:43.803Z,10.07
2022-10-22T04:44:13.667Z,8.73
2022-10-22T04:46:44.114Z,9.25
2022-10-22T04:49:10.877Z,9.50
2022-10-22T04:51:37.797Z,10.18
2022-10-22T04:54:04.795Z,9.93
2022-10-22T04:56:33.009Z,9.85
2022-10-22T04:59:03.099Z,10.10
2022-10-22T05:01:43.005Z,10.05
2022-10-22T05:04:16.583Z,10.32
2022-10-22T05:06:43.938Z,10.55
2022-10-22T05:09:16.146Z,10.32
2022-10-22T05:11:46.394Z,9.32
2022-10-22T05:14:13.317Z,10.13
2022-10-22T05:16:40.606Z,10.60
2022-10-22T05:19:08.936Z,10.55
2022-10-22T05:21:35.755Z,10.25
2022-10-22T05:24:03.992Z,10.23
2022-10-22T05:26:30.803Z,9.57
2022-10-22T05:28:57.670Z,10.23
2022-10-22T05:31:24.860Z,10.02
2022-10-22T05:33:51.800Z,9.90
2022-10-22T05:36:21.702Z,9.05
2022-10-22T05:38:49.280Z,9.43
2022-10-22T05:41:27.906Z,9.57
2022-10-22T05:43:57.231Z,9.70
2022-10-22T05:46:27.176Z,9.25
2022-10-22T05:49:00.306Z,10.32
2022-10-22T05:51:31.146Z,9.40
2022-10-22T05:54:00.603Z,9.15
2022-10-22T05:56:29.778Z,9.00
2022-10-22T05:58:57.022Z,9.82
2022-10-22T06:01:27.636Z,10.00
2022-10-22T06:04:00.150Z,9.48
2022-10-22T06:06:44.423Z,9.35
2022-10-22T06:09:29.625Z,9.77
2022-10-22T06:11:57.762Z,9.77
2022-10-22T06:14:25.509Z,10.13
2022-10-22T06:19:22.848Z,10.70
2022-10-22T06:21:49.754Z,9.97
2022-10-22T06:24:16.647Z,11.52
2022-10-22T06:26:43.861Z,11.40
2022-10-22T06:29:11.099Z,11.50
2022-10-22T06:34:07.757Z,10.20
2022-10-22T06:39:01.938Z,10.50
2022-10-22T06:41:29.588Z,9.70
2022-10-22T06:43:57.585Z,10.10
2022-10-22T06:46:25.221Z,10.75
2022-10-22T06:48:58.294Z,10.20
2022-10-22T06:51:26.318Z,10.15
2022-10-22T06:53:54.935Z,10.20
2022-10-22T06:56:24.165Z,10.43
2022-10-22T06:58:52.959Z,12.40
2022-10-22T07:01:23.317Z,12.20
2022-10-22T07:03:51.876Z,10.40
2022-10-22T07:06:19.424Z,9.75
2022-10-22T07:08:46.592Z,10.55
2022-10-22T07:11:21.527Z,10.70
2022-10-22T07:13:49.272Z,10.38
2022-10-22T07:16:17.476Z,10.65
2022-10-22T07:18:44.755Z,11.15
2022-10-22T07:21:13.046Z,11.55
2022-10-22T07:23:40.188Z,11.07
2022-10-22T07:26:12.724Z,11.15
2022-10-22T07:28:40.971Z,12.10
2022-10-22T07:33:40.542Z,12.43
2022-10-22T07:36:11.936Z,12.05
2022-10-22T07:38:38.839Z,12.60
2022-10-22T07:41:05.901Z,12.05
2022-10-22T07:43:32.811Z,11.95
2022-10-22T07:46:00.386Z,11.57
2022-10-22T07:48:30.357Z,11.07
2022-10-22T07:50:58.331Z,12.88
2022-10-22T07:53:25.730Z,13.05
2022-10-22T07:55:53.312Z,12.10
2022-10-22T07:58:21.743Z,12.57
2022-10-22T08:00:49.990Z,12.55
2022-10-22T08:03:18.256Z,12.10
2022-10-22T08:05:45.627Z,13.40
2022-10-22T08:08:14.734Z,13.80
2022-10-22T08:10:42.301Z,11.80
2022-10-22T08:13:09.371Z,12.00
2022-10-22T08:15:36.885Z,11.80
2022-10-22T08:18:04.238Z,11.98
2022-10-22T08:20:31.380Z,11.10
2022-10-22T08:22:59.389Z,11.63
2022-10-22T08:25:26.649Z,12.10
2022-10-22T08:27:53.575Z,12.45
2022-10-22T08:30:20.740Z,12.55
2022-10-22T08:32:49.374Z,13.02
2022-10-22T08:35:18.534Z,11.88
2022-10-22T08:37:45.467Z,12.38
2022-10-22T08:40:35.605Z,10.70
2022-10-22T08:43:18.380Z,12.05
2022-10-22T08:46:12.059Z,9.82
2022-10-22T08:48:46.926Z,11.02
2022-10-22T08:51:21.910Z,11.05
2022-10-22T08:54:19.683Z,11.05
2022-10-22T08:57:17.080Z,9.88
2022-10-22T08:59:55.147Z,9.57
2022-10-22T09:02:40.623Z,8.48
2022-10-22T09:05:20.932Z,7.40
2022-10-22T09:07:50.245Z,9.77
2022-10-22T09:10:18.901Z,7.63
2022-10-22T09:12:47.174Z,6.75
2022-10-22T09:15:19.115Z,6.68
2022-10-22T09:18:29.829Z,6.65
2022-10-22T09:21:29.440Z,6.40
2022-10-22T09:24:12.915Z,5.30
2022-10-22T09:26:41.546Z,5.30
2022-10-22T09:29:18.668Z,5.03
2022-10-22T09:31:45.736Z,6.00
2022-10-22T09:34:16.355Z,6.45
2022-10-22T09:36:43.251Z,4.80
2022-10-22T09:39:29.561Z,4.78
2022-10-22T09:41:56.542Z,4.53
2022-10-22T09:44:23.442Z,4.07
2022-10-22T09:46:50.670Z,3.75
2022-10-22T09:49:21.036Z,4.15
2022-10-22T09:51:53.790Z,3.50
2022-10-22T09:54:40.383Z,3.78
2022-10-22T09:57:18.874Z,3.90
2022-10-22T09:59:50.231Z,3.30
2022-10-22T10:05:06.471Z,3.78
2022-10-22T10:07:35.904Z,3.88
2022-10-22T10:10:16.217Z,3.83
2022-10-22T10:13:12.216Z,3.25
2022-10-22T10:16:07.978Z,3.22
2022-10-22T10:19:04.589Z,3.22
2022-10-22T10:21:47.620Z,2.72
2022-10-22T10:24:59.452Z,2.70
2022-10-22T10:27:41.141Z,2.58
2022-10-22T10:30:21.668Z,2.33
2022-10-22T10:33:03.348Z,2.70
2022-10-22T10:35:55.145Z,2.55
2022-10-22T10:39:08.727Z,2.33
2022-10-22T11:55:49.786Z,2.30
2022-10-22T11:58:28.964Z,2.20
2022-10-22T12:01:23.969Z,1.92
2022-10-22T12:03:59.693Z,2.17
2022-10-22T12:06:28.195Z,2.03
2022-10-22T12:09:03.099Z,1.95
2022-10-22T12:11:41.847Z,2.70
2022-10-22T12:14:26.685Z,2.50
2022-10-22T21:10:49.149Z,4.75
2022-10-22T21:18:13.739Z,4.70
2022-10-22T22:00:07.886Z,4.90
2022-10-22T22:09:58.426Z,5.00
2022-10-22T22:12:25.380Z,5.60
2022-10-22T22:14:52.392Z,4.75
2022-10-22T22:19:46.404Z,5.90
2022-10-22T22:22:13.466Z,6.70
2022-10-22T22:24:40.640Z,5.70
2022-10-22T22:27:07.661Z,6.57
2022-10-22T22:29:35.221Z,5.47
2022-10-22T22:32:02.297Z,5.60
2022-10-22T22:34:29.542Z,5.78
2022-10-22T22:36:56.473Z,7.05
2022-10-22T22:39:23.931Z,6.50
2022-10-22T22:46:45.209Z,6.13
2022-10-22T22:49:13.512Z,6.20
2022-10-22T22:51:40.710Z,5.82
2022-10-22T22:54:07.914Z,6.00
2022-10-22T22:56:35.001Z,7.13
2022-10-22T22:59:03.191Z,6.82
2022-10-22T23:01:36.760Z,6.10
2022-10-22T23:04:19.469Z,6.60
2022-10-22T23:06:46.658Z,6.00
2022-10-22T23:09:15.630Z,6.20
2022-10-22T23:11:44.533Z,5.82
2022-10-22T23:14:15.579Z,6.10
2022-10-22T23:16:48.769Z,6.10
2022-10-22T23:21:51.638Z,6.40
2022-10-22T23:24:22.035Z,5.90
2022-10-22T23:26:51.512Z,5.60
2022-10-22T23:29:21.755Z,5.95
2022-10-22T23:31:49.803Z,6.20
2022-10-22T23:34:20.477Z,6.40
2022-10-22T23:36:47.520Z,6.30
2022-10-22T23:41:45.624Z,6.35
2022-10-22T23:44:13.309Z,5.70
2022-10-22T23:46:40.642Z,6.32
2022-10-22T23:49:09.365Z,6.03
2022-10-22T23:51:36.783Z,6.10
2022-10-22T23:54:07.534Z,6.03
2022-10-22T23:56:35.689Z,6.17
2022-10-22T23:59:03.869Z,6.28
